Glenmont, NY (12077)

7:13 PM EST on December 19, 2014 (GMT -0500)
Somerset Woods | Change Station
CLOSE
Current Station
Personal Weather Station
Location: Glenmont, NY
Elevation: 160 ft
Nearby Weather Stations

Elev 160 ft 42.59 °N, 73.81 °W | Updated 1 second ago

Overcast
Overcast
28.1 °F
Feels Like 21 °F
N
7.4
Wind Variable Wind from NW
Gusts 17.0 mph

Today
High -- | Low -- °F
--% Chance of Precip.
Yesterday
High -- | Low -- °F
Precip. -- in
7:20 AM 4:23 PM
Waning Crescent, 5% visible
Pressure 30.17 in
Visibility 10.0 miles
Clouds Few 2200 ft
Overcast 3200 ft
Windchill 21 °F
Dew Point 22 °F
Humidity 77%
Rainfall 0.00 in
Snow Depth Not available.
UV 0 out of 12
Pollen .10 out of 12
Air Quality Not available.
Flu Activity Not available.
METAR KALB 192351Z COR 31011KT 10SM FEW022 OVC032 M02/M07 A3016 RMK AO2 SLP216 4/001 T10171067 11011 21017 51022

More Conditions Fewer Conditions

Pressure 30.17 in
Visibility 10.0 miles
Clouds Few 2200 ft
Overcast 3200 ft
Windchill 21 °F
Dew Point 22 °F
Humidity 77%
Rainfall 0.00 in
Snow Depth Not available.
UV 0 out of 12
Pollen .10 out of 12
Air Quality Not available.
Flu Activity Not available.
METAR KALB 192351Z COR 31011KT 10SM FEW022 OVC032 M02/M07 A3016 RMK AO2 SLP216 4/001 T10171067 11011 21017 51022

More Conditions Fewer Conditions

10-Day Weather Forecast

Almanac

Astronomy

Dec. 19, 2014 Rise Set
Actual Time
Civil Twilight
Nautical Twilight
Astronomical Twilight
Moon
Length of Visible Light
Length of Day
Tomorrow will be .
, % of the Moon is Illuminated

Today's Extremes

State Highs State Lows

Community

WunderPhotos

Upload Photos

1,779,084 photos uploaded!

WunderBlogs® & News

Nearby

Air Quality

  Air Quality AQ Index Pollutant
Not available.

Snow Depth

Station Depth Elevation

Earthquake Activity

City Distance Mag. Time & Date
Minimum magnitude displayed is 2.5.

Coastal Water Temperatures

Place Temperature

Nearby Weather Stations